sensor_id;sensor_type;location;lat;lon;timestamp;P1;durP1;ratioP1;P2;durP2;ratioP2
34982;SDS011;21187;50.976;13.720;2023-06-26T00:05:01;5.53;;;3.58;;
34982;SDS011;21187;50.976;13.720;2023-06-26T00:10:04;10.95;;;5.10;;
34982;SDS011;21187;50.976;13.720;2023-06-26T00:15:06;5.90;;;3.58;;
34982;SDS011;21187;50.976;13.720;2023-06-26T00:20:09;6.43;;;3.65;;
34982;SDS011;21187;50.976;13.720;2023-06-26T00:25:14;8.15;;;4.28;;
34982;SDS011;21187;50.976;13.720;2023-06-26T00:30:16;7.18;;;3.75;;
34982;SDS011;21187;50.976;13.720;2023-06-26T00:35:18;9.10;;;4.53;;
34982;SDS011;21187;50.976;13.720;2023-06-26T00:40:20;5.65;;;3.58;;
34982;SDS011;21187;50.976;13.720;2023-06-26T00:45:22;8.70;;;4.07;;
34982;SDS011;21187;50.976;13.720;2023-06-26T00:50:34;7.90;;;3.88;;
34982;SDS011;21187;50.976;13.720;2023-06-26T00:55:36;7.07;;;3.88;;
34982;SDS011;21187;50.976;13.720;2023-06-26T01:00:38;8.35;;;3.88;;
34982;SDS011;21187;50.976;13.720;2023-06-26T01:05:41;7.35;;;4.22;;
34982;SDS011;21187;50.976;13.720;2023-06-26T01:10:47;9.32;;;4.38;;
34982;SDS011;21187;50.976;13.720;2023-06-26T01:15:49;7.32;;;3.53;;
34982;SDS011;21187;50.976;13.720;2023-06-26T01:20:51;10.30;;;3.60;;
34982;SDS011;21187;50.976;13.720;2023-06-26T01:31:21;8.18;;;4.07;;
34982;SDS011;21187;50.976;13.720;2023-06-26T01:36:23;6.38;;;3.65;;
34982;SDS011;21187;50.976;13.720;2023-06-26T01:41:25;6.68;;;4.03;;
34982;SDS011;21187;50.976;13.720;2023-06-26T01:57:09;6.47;;;3.63;;
34982;SDS011;21187;50.976;13.720;2023-06-26T02:02:13;7.07;;;3.63;;
34982;SDS011;21187;50.976;13.720;2023-06-26T02:07:15;6.05;;;3.80;;
34982;SDS011;21187;50.976;13.720;2023-06-26T02:12:17;6.45;;;4.13;;
34982;SDS011;21187;50.976;13.720;2023-06-26T02:17:19;7.82;;;3.85;;
34982;SDS011;21187;50.976;13.720;2023-06-26T02:22:21;5.68;;;3.72;;
34982;SDS011;21187;50.976;13.720;2023-06-26T02:27:23;4.80;;;3.40;;
34982;SDS011;21187;50.976;13.720;2023-06-26T02:32:27;7.55;;;3.97;;
34982;SDS011;21187;50.976;13.720;2023-06-26T02:37:29;6.32;;;3.75;;
34982;SDS011;21187;50.976;13.720;2023-06-26T02:42:31;6.80;;;3.58;;
34982;SDS011;21187;50.976;13.720;2023-06-26T02:47:33;9.10;;;4.00;;
34982;SDS011;21187;50.976;13.720;2023-06-26T02:52:36;8.02;;;4.50;;
34982;SDS011;21187;50.976;13.720;2023-06-26T02:57:38;7.00;;;3.60;;
34982;SDS011;21187;50.976;13.720;2023-06-26T03:02:39;8.70;;;3.58;;
34982;SDS011;21187;50.976;13.720;2023-06-26T03:07:45;6.53;;;4.35;;
34982;SDS011;21187;50.976;13.720;2023-06-26T03:12:47;5.25;;;3.38;;
34982;SDS011;21187;50.976;13.720;2023-06-26T03:17:51;6.22;;;3.80;;
34982;SDS011;21187;50.976;13.720;2023-06-26T03:22:58;9.82;;;4.05;;
34982;SDS011;21187;50.976;13.720;2023-06-26T03:28:01;8.02;;;3.67;;
34982;SDS011;21187;50.976;13.720;2023-06-26T03:33:05;6.25;;;3.92;;
34982;SDS011;21187;50.976;13.720;2023-06-26T03:38:07;7.72;;;3.90;;
34982;SDS011;21187;50.976;13.720;2023-06-26T03:43:09;5.60;;;3.58;;
34982;SDS011;21187;50.976;13.720;2023-06-26T03:48:31;6.65;;;3.80;;
34982;SDS011;21187;50.976;13.720;2023-06-26T03:53:33;6.15;;;3.55;;
34982;SDS011;21187;50.976;13.720;2023-06-26T03:58:35;5.90;;;3.70;;
34982;SDS011;21187;50.976;13.720;2023-06-26T04:03:38;8.55;;;4.47;;
34982;SDS011;21187;50.976;13.720;2023-06-26T04:08:41;8.75;;;4.15;;
34982;SDS011;21187;50.976;13.720;2023-06-26T04:13:43;7.63;;;4.05;;
34982;SDS011;21187;50.976;13.720;2023-06-26T04:18:45;8.25;;;3.75;;
34982;SDS011;21187;50.976;13.720;2023-06-26T04:23:47;6.55;;;3.50;;
34982;SDS011;21187;50.976;13.720;2023-06-26T04:28:49;9.68;;;3.92;;
34982;SDS011;21187;50.976;13.720;2023-06-26T04:33:51;7.65;;;3.60;;
34982;SDS011;21187;50.976;13.720;2023-06-26T04:38:56;6.30;;;3.30;;
34982;SDS011;21187;50.976;13.720;2023-06-26T04:43:58;5.93;;;4.13;;
34982;SDS011;21187;50.976;13.720;2023-06-26T04:49:00;7.60;;;3.67;;
34982;SDS011;21187;50.976;13.720;2023-06-26T04:54:05;8.82;;;3.60;;
34982;SDS011;21187;50.976;13.720;2023-06-26T04:59:08;8.15;;;4.25;;
34982;SDS011;21187;50.976;13.720;2023-06-26T05:04:15;7.82;;;3.42;;
34982;SDS011;21187;50.976;13.720;2023-06-26T05:09:17;6.30;;;4.25;;
34982;SDS011;21187;50.976;13.720;2023-06-26T05:14:20;11.23;;;4.07;;
34982;SDS011;21187;50.976;13.720;2023-06-26T05:19:25;7.00;;;3.70;;
34982;SDS011;21187;50.976;13.720;2023-06-26T05:24:28;8.48;;;3.72;;
34982;SDS011;21187;50.976;13.720;2023-06-26T05:29:32;6.40;;;3.67;;
34982;SDS011;21187;50.976;13.720;2023-06-26T05:34:39;9.93;;;3.35;;
34982;SDS011;21187;50.976;13.720;2023-06-26T05:39:42;7.53;;;3.63;;
34982;SDS011;21187;50.976;13.720;2023-06-26T05:44:45;6.97;;;4.15;;
34982;SDS011;21187;50.976;13.720;2023-06-26T05:49:47;10.07;;;4.03;;
34982;SDS011;21187;50.976;13.720;2023-06-26T05:54:49;4.95;;;3.38;;
34982;SDS011;21187;50.976;13.720;2023-06-26T05:59:51;6.70;;;3.75;;
34982;SDS011;21187;50.976;13.720;2023-06-26T06:04:53;9.13;;;3.72;;
34982;SDS011;21187;50.976;13.720;2023-06-26T06:09:55;6.00;;;3.88;;
34982;SDS011;21187;50.976;13.720;2023-06-26T06:14:57;7.57;;;3.63;;
34982;SDS011;21187;50.976;13.720;2023-06-26T06:19:59;4.55;;;3.05;;
34982;SDS011;21187;50.976;13.720;2023-06-26T06:25:01;8.02;;;3.85;;
34982;SDS011;21187;50.976;13.720;2023-06-26T06:30:03;7.47;;;4.30;;
34982;SDS011;21187;50.976;13.720;2023-06-26T06:35:08;12.68;;;4.57;;
34982;SDS011;21187;50.976;13.720;2023-06-26T06:40:12;8.50;;;3.97;;
34982;SDS011;21187;50.976;13.720;2023-06-26T06:45:14;5.03;;;3.50;;
34982;SDS011;21187;50.976;13.720;2023-06-26T06:50:16;7.97;;;3.78;;
34982;SDS011;21187;50.976;13.720;2023-06-26T06:55:19;7.97;;;3.88;;
34982;SDS011;21187;50.976;13.720;2023-06-26T07:00:21;8.60;;;4.05;;
34982;SDS011;21187;50.976;13.720;2023-06-26T07:05:23;6.22;;;3.05;;
34982;SDS011;21187;50.976;13.720;2023-06-26T07:10:25;9.98;;;3.92;;
34982;SDS011;21187;50.976;13.720;2023-06-26T07:15:27;8.27;;;4.13;;
34982;SDS011;21187;50.976;13.720;2023-06-26T07:20:29;6.68;;;4.15;;
34982;SDS011;21187;50.976;13.720;2023-06-26T07:25:31;5.20;;;3.78;;
34982;SDS011;21187;50.976;13.720;2023-06-26T07:30:33;7.30;;;3.75;;
34982;SDS011;21187;50.976;13.720;2023-06-26T07:35:35;6.93;;;3.60;;
34982;SDS011;21187;50.976;13.720;2023-06-26T07:40:37;6.05;;;4.00;;
34982;SDS011;21187;50.976;13.720;2023-06-26T07:45:40;13.10;;;4.45;;
34982;SDS011;21187;50.976;13.720;2023-06-26T07:50:42;6.32;;;3.85;;
34982;SDS011;21187;50.976;13.720;2023-06-26T07:55:44;5.10;;;3.30;;
34982;SDS011;21187;50.976;13.720;2023-06-26T08:00:46;5.53;;;3.70;;
34982;SDS011;21187;50.976;13.720;2023-06-26T08:05:48;8.23;;;3.95;;
34982;SDS011;21187;50.976;13.720;2023-06-26T08:10:51;6.50;;;4.40;;
34982;SDS011;21187;50.976;13.720;2023-06-26T08:15:53;5.80;;;3.47;;
34982;SDS011;21187;50.976;13.720;2023-06-26T08:20:56;7.70;;;3.78;;
34982;SDS011;21187;50.976;13.720;2023-06-26T08:25:58;8.93;;;4.00;;
34982;SDS011;21187;50.976;13.720;2023-06-26T08:31:00;6.55;;;3.80;;
34982;SDS011;21187;50.976;13.720;2023-06-26T08:36:02;5.80;;;4.03;;
34982;SDS011;21187;50.976;13.720;2023-06-26T08:41:04;6.72;;;4.38;;
34982;SDS011;21187;50.976;13.720;2023-06-26T08:46:10;5.55;;;3.53;;
34982;SDS011;21187;50.976;13.720;2023-06-26T08:51:16;8.88;;;4.35;;
34982;SDS011;21187;50.976;13.720;2023-06-26T08:56:19;13.18;;;3.78;;
34982;SDS011;21187;50.976;13.720;2023-06-26T09:01:24;6.35;;;4.15;;
34982;SDS011;21187;50.976;13.720;2023-06-26T09:06:26;6.75;;;4.32;;
34982;SDS011;21187;50.976;13.720;2023-06-26T09:11:28;9.23;;;3.97;;
34982;SDS011;21187;50.976;13.720;2023-06-26T09:16:30;6.43;;;3.92;;
34982;SDS011;21187;50.976;13.720;2023-06-26T09:21:32;8.00;;;4.47;;
34982;SDS011;21187;50.976;13.720;2023-06-26T09:26:38;4.63;;;3.30;;
34982;SDS011;21187;50.976;13.720;2023-06-26T09:31:41;5.68;;;3.67;;
34982;SDS011;21187;50.976;13.720;2023-06-26T09:36:45;6.20;;;3.40;;
34982;SDS011;21187;50.976;13.720;2023-06-26T09:41:48;7.15;;;3.80;;
34982;SDS011;21187;50.976;13.720;2023-06-26T09:46:51;8.68;;;4.05;;
34982;SDS011;21187;50.976;13.720;2023-06-26T09:51:53;7.03;;;4.10;;
34982;SDS011;21187;50.976;13.720;2023-06-26T09:56:56;5.65;;;3.95;;
34982;SDS011;21187;50.976;13.720;2023-06-26T10:02:08;7.10;;;4.43;;
34982;SDS011;21187;50.976;13.720;2023-06-26T10:07:11;5.63;;;3.53;;
34982;SDS011;21187;50.976;13.720;2023-06-26T10:12:24;6.18;;;3.55;;
34982;SDS011;21187;50.976;13.720;2023-06-26T10:17:30;5.22;;;3.60;;
34982;SDS011;21187;50.976;13.720;2023-06-26T10:22:39;7.35;;;4.22;;
34982;SDS011;21187;50.976;13.720;2023-06-26T10:32:56;5.88;;;3.42;;
34982;SDS011;21187;50.976;13.720;2023-06-26T10:38:02;4.68;;;3.60;;
34982;SDS011;21187;50.976;13.720;2023-06-26T10:43:08;5.88;;;3.67;;
34982;SDS011;21187;50.976;13.720;2023-06-26T10:48:13;6.15;;;4.05;;
34982;SDS011;21187;50.976;13.720;2023-06-26T10:58:27;5.85;;;4.22;;
34982;SDS011;21187;50.976;13.720;2023-06-26T11:03:34;5.05;;;3.67;;
34982;SDS011;21187;50.976;13.720;2023-06-26T11:13:51;6.60;;;4.03;;
34982;SDS011;21187;50.976;13.720;2023-06-26T11:18:56;6.10;;;3.92;;
34982;SDS011;21187;50.976;13.720;2023-06-26T11:23:59;10.27;;;4.05;;
34982;SDS011;21187;50.976;13.720;2023-06-26T11:29:04;6.30;;;4.10;;
34982;SDS011;21187;50.976;13.720;2023-06-26T11:34:10;7.72;;;3.85;;
34982;SDS011;21187;50.976;13.720;2023-06-26T11:39:14;6.30;;;4.00;;
34982;SDS011;21187;50.976;13.720;2023-06-26T11:44:16;7.35;;;4.15;;
34982;SDS011;21187;50.976;13.720;2023-06-26T11:49:22;6.90;;;3.53;;
34982;SDS011;21187;50.976;13.720;2023-06-26T11:54:26;4.57;;;3.22;;
34982;SDS011;21187;50.976;13.720;2023-06-26T11:59:39;4.88;;;3.38;;
34982;SDS011;21187;50.976;13.720;2023-06-26T12:04:42;6.72;;;3.97;;
34982;SDS011;21187;50.976;13.720;2023-06-26T12:09:45;7.72;;;3.75;;
34982;SDS011;21187;50.976;13.720;2023-06-26T12:14:49;5.07;;;3.63;;
34982;SDS011;21187;50.976;13.720;2023-06-26T12:19:53;4.95;;;3.67;;
34982;SDS011;21187;50.976;13.720;2023-06-26T12:24:56;6.72;;;4.10;;
34982;SDS011;21187;50.976;13.720;2023-06-26T12:29:58;5.32;;;3.70;;
34982;SDS011;21187;50.976;13.720;2023-06-26T12:35:00;7.43;;;4.00;;
34982;SDS011;21187;50.976;13.720;2023-06-26T12:40:02;5.22;;;3.78;;
34982;SDS011;21187;50.976;13.720;2023-06-26T12:45:11;7.07;;;3.60;;
34982;SDS011;21187;50.976;13.720;2023-06-26T12:50:36;5.40;;;3.85;;
34982;SDS011;21187;50.976;13.720;2023-06-26T12:55:39;8.75;;;4.55;;
34982;SDS011;21187;50.976;13.720;2023-06-26T13:00:41;5.30;;;3.60;;
34982;SDS011;21187;50.976;13.720;2023-06-26T13:05:44;6.93;;;4.22;;
34982;SDS011;21187;50.976;13.720;2023-06-26T13:10:46;8.90;;;4.10;;
34982;SDS011;21187;50.976;13.720;2023-06-26T13:15:48;7.13;;;3.70;;
34982;SDS011;21187;50.976;13.720;2023-06-26T13:20:50;7.65;;;3.97;;
34982;SDS011;21187;50.976;13.720;2023-06-26T13:25:51;4.95;;;3.60;;
34982;SDS011;21187;50.976;13.720;2023-06-26T13:30:54;5.88;;;4.20;;
34982;SDS011;21187;50.976;13.720;2023-06-26T13:35:56;6.78;;;3.92;;
34982;SDS011;21187;50.976;13.720;2023-06-26T13:40:59;8.93;;;4.38;;
34982;SDS011;21187;50.976;13.720;2023-06-26T13:46:04;7.68;;;4.32;;
34982;SDS011;21187;50.976;13.720;2023-06-26T13:51:07;7.10;;;3.80;;
34982;SDS011;21187;50.976;13.720;2023-06-26T13:56:09;6.07;;;3.78;;
34982;SDS011;21187;50.976;13.720;2023-06-26T14:01:11;5.20;;;3.70;;
34982;SDS011;21187;50.976;13.720;2023-06-26T14:06:14;7.57;;;3.88;;
34982;SDS011;21187;50.976;13.720;2023-06-26T14:11:17;5.85;;;3.95;;
34982;SDS011;21187;50.976;13.720;2023-06-26T14:16:20;6.18;;;3.90;;
34982;SDS011;21187;50.976;13.720;2023-06-26T14:21:25;5.95;;;3.67;;
34982;SDS011;21187;50.976;13.720;2023-06-26T14:26:29;6.43;;;4.25;;
34982;SDS011;21187;50.976;13.720;2023-06-26T14:31:31;7.32;;;4.00;;
34982;SDS011;21187;50.976;13.720;2023-06-26T14:36:34;6.63;;;4.55;;
34982;SDS011;21187;50.976;13.720;2023-06-26T14:41:36;6.72;;;3.78;;
34982;SDS011;21187;50.976;13.720;2023-06-26T14:46:39;9.88;;;3.75;;
34982;SDS011;21187;50.976;13.720;2023-06-26T14:51:42;6.07;;;4.32;;
34982;SDS011;21187;50.976;13.720;2023-06-26T14:56:44;7.30;;;4.35;;
34982;SDS011;21187;50.976;13.720;2023-06-26T15:01:47;5.93;;;4.20;;
34982;SDS011;21187;50.976;13.720;2023-06-26T15:06:51;6.57;;;4.05;;
34982;SDS011;21187;50.976;13.720;2023-06-26T15:11:54;7.20;;;3.97;;
34982;SDS011;21187;50.976;13.720;2023-06-26T15:16:56;7.25;;;3.97;;
34982;SDS011;21187;50.976;13.720;2023-06-26T15:21:58;6.18;;;4.10;;
34982;SDS011;21187;50.976;13.720;2023-06-26T15:27:01;8.13;;;4.00;;
34982;SDS011;21187;50.976;13.720;2023-06-26T15:32:05;7.63;;;4.88;;
34982;SDS011;21187;50.976;13.720;2023-06-26T15:37:08;7.30;;;4.13;;
34982;SDS011;21187;50.976;13.720;2023-06-26T15:42:10;7.00;;;4.45;;
34982;SDS011;21187;50.976;13.720;2023-06-26T15:47:12;6.78;;;4.45;;
34982;SDS011;21187;50.976;13.720;2023-06-26T15:52:14;8.40;;;4.38;;
34982;SDS011;21187;50.976;13.720;2023-06-26T15:57:15;9.85;;;4.80;;
34982;SDS011;21187;50.976;13.720;2023-06-26T16:02:17;7.32;;;4.22;;
34982;SDS011;21187;50.976;13.720;2023-06-26T16:07:19;7.70;;;4.10;;
34982;SDS011;21187;50.976;13.720;2023-06-26T16:12:25;7.75;;;4.63;;
34982;SDS011;21187;50.976;13.720;2023-06-26T16:17:27;8.65;;;4.70;;
34982;SDS011;21187;50.976;13.720;2023-06-26T16:22:29;18.50;;;5.07;;
34982;SDS011;21187;50.976;13.720;2023-06-26T16:27:31;23.83;;;6.47;;
34982;SDS011;21187;50.976;13.720;2023-06-26T16:32:33;15.20;;;5.75;;
34982;SDS011;21187;50.976;13.720;2023-06-26T16:37:35;16.88;;;6.40;;
34982;SDS011;21187;50.976;13.720;2023-06-26T16:42:37;9.55;;;5.35;;
34982;SDS011;21187;50.976;13.720;2023-06-26T16:47:39;9.20;;;4.47;;
34982;SDS011;21187;50.976;13.720;2023-06-26T16:52:41;11.02;;;4.78;;
34982;SDS011;21187;50.976;13.720;2023-06-26T16:57:44;6.85;;;3.90;;
34982;SDS011;21187;50.976;13.720;2023-06-26T17:02:46;7.15;;;4.22;;
34982;SDS011;21187;50.976;13.720;2023-06-26T17:07:49;12.43;;;4.60;;
34982;SDS011;21187;50.976;13.720;2023-06-26T17:12:51;7.47;;;4.22;;
34982;SDS011;21187;50.976;13.720;2023-06-26T17:17:53;8.15;;;4.75;;
34982;SDS011;21187;50.976;13.720;2023-06-26T17:22:55;12.60;;;5.40;;
34982;SDS011;21187;50.976;13.720;2023-06-26T17:28:00;13.52;;;5.90;;
34982;SDS011;21187;50.976;13.720;2023-06-26T17:33:02;16.15;;;5.88;;
34982;SDS011;21187;50.976;13.720;2023-06-26T17:38:05;12.77;;;6.18;;
34982;SDS011;21187;50.976;13.720;2023-06-26T17:43:09;12.77;;;6.03;;
34982;SDS011;21187;50.976;13.720;2023-06-26T17:48:12;14.07;;;6.20;;
34982;SDS011;21187;50.976;13.720;2023-06-26T17:53:15;13.57;;;6.43;;
34982;SDS011;21187;50.976;13.720;2023-06-26T17:58:17;15.75;;;6.80;;
34982;SDS011;21187;50.976;13.720;2023-06-26T18:03:18;11.90;;;7.00;;
34982;SDS011;21187;50.976;13.720;2023-06-26T18:08:21;16.20;;;7.57;;
34982;SDS011;21187;50.976;13.720;2023-06-26T18:13:23;16.17;;;7.53;;
34982;SDS011;21187;50.976;13.720;2023-06-26T18:18:26;17.40;;;8.00;;
34982;SDS011;21187;50.976;13.720;2023-06-26T18:23:28;18.45;;;7.80;;
34982;SDS011;21187;50.976;13.720;2023-06-26T18:28:30;17.25;;;8.80;;
34982;SDS011;21187;50.976;13.720;2023-06-26T18:33:33;17.85;;;8.30;;
34982;SDS011;21187;50.976;13.720;2023-06-26T18:38:36;13.88;;;8.32;;
34982;SDS011;21187;50.976;13.720;2023-06-26T18:43:41;19.00;;;7.82;;
34982;SDS011;21187;50.976;13.720;2023-06-26T18:48:58;14.70;;;7.72;;
34982;SDS011;21187;50.976;13.720;2023-06-26T18:54:02;14.73;;;7.22;;
34982;SDS011;21187;50.976;13.720;2023-06-26T18:59:05;17.40;;;8.65;;
34982;SDS011;21187;50.976;13.720;2023-06-26T19:04:07;16.42;;;7.95;;
34982;SDS011;21187;50.976;13.720;2023-06-26T19:09:09;14.95;;;6.80;;
34982;SDS011;21187;50.976;13.720;2023-06-26T19:14:11;13.65;;;7.55;;
34982;SDS011;21187;50.976;13.720;2023-06-26T19:19:13;16.55;;;7.13;;
34982;SDS011;21187;50.976;13.720;2023-06-26T19:24:15;16.60;;;6.63;;
34982;SDS011;21187;50.976;13.720;2023-06-26T19:29:19;13.32;;;7.28;;
34982;SDS011;21187;50.976;13.720;2023-06-26T19:34:22;11.90;;;6.93;;
34982;SDS011;21187;50.976;13.720;2023-06-26T19:39:25;15.30;;;7.20;;
34982;SDS011;21187;50.976;13.720;2023-06-26T19:44:26;14.68;;;7.10;;
34982;SDS011;21187;50.976;13.720;2023-06-26T19:49:28;12.57;;;6.72;;
34982;SDS011;21187;50.976;13.720;2023-06-26T19:54:31;14.13;;;6.80;;
34982;SDS011;21187;50.976;13.720;2023-06-26T19:59:33;12.90;;;7.18;;
34982;SDS011;21187;50.976;13.720;2023-06-26T20:04:35;17.58;;;7.43;;
34982;SDS011;21187;50.976;13.720;2023-06-26T20:09:37;12.57;;;7.10;;
34982;SDS011;21187;50.976;13.720;2023-06-26T20:14:40;15.05;;;6.93;;
34982;SDS011;21187;50.976;13.720;2023-06-26T20:19:42;10.35;;;6.55;;
34982;SDS011;21187;50.976;13.720;2023-06-26T20:24:44;12.90;;;6.57;;
34982;SDS011;21187;50.976;13.720;2023-06-26T20:29:45;14.48;;;7.10;;
34982;SDS011;21187;50.976;13.720;2023-06-26T20:34:47;12.45;;;7.13;;
34982;SDS011;21187;50.976;13.720;2023-06-26T20:39:50;12.98;;;7.07;;
34982;SDS011;21187;50.976;13.720;2023-06-26T20:44:52;13.52;;;7.50;;
34982;SDS011;21187;50.976;13.720;2023-06-26T20:49:57;13.77;;;6.82;;
34982;SDS011;21187;50.976;13.720;2023-06-26T20:54:59;15.73;;;6.97;;
34982;SDS011;21187;50.976;13.720;2023-06-26T21:00:02;14.80;;;6.95;;
34982;SDS011;21187;50.976;13.720;2023-06-26T21:05:04;11.88;;;6.97;;
34982;SDS011;21187;50.976;13.720;2023-06-26T21:10:07;11.75;;;7.30;;
34982;SDS011;21187;50.976;13.720;2023-06-26T21:15:10;13.48;;;7.75;;
34982;SDS011;21187;50.976;13.720;2023-06-26T21:20:12;14.35;;;8.15;;
34982;SDS011;21187;50.976;13.720;2023-06-26T21:25:14;15.43;;;8.25;;
34982;SDS011;21187;50.976;13.720;2023-06-26T21:30:16;12.43;;;8.05;;
34982;SDS011;21187;50.976;13.720;2023-06-26T21:35:18;16.35;;;7.57;;
34982;SDS011;21187;50.976;13.720;2023-06-26T21:40:41;18.20;;;8.27;;
34982;SDS011;21187;50.976;13.720;2023-06-26T21:45:43;17.00;;;8.65;;
34982;SDS011;21187;50.976;13.720;2023-06-26T21:50:44;13.40;;;8.57;;
34982;SDS011;21187;50.976;13.720;2023-06-26T21:55:46;14.98;;;7.82;;
34982;SDS011;21187;50.976;13.720;2023-06-26T22:00:48;15.15;;;8.68;;
34982;SDS011;21187;50.976;13.720;2023-06-26T22:05:51;15.88;;;8.13;;
34982;SDS011;21187;50.976;13.720;2023-06-26T22:10:53;15.93;;;8.65;;
34982;SDS011;21187;50.976;13.720;2023-06-26T22:15:55;13.40;;;8.50;;
34982;SDS011;21187;50.976;13.720;2023-06-26T22:20:56;12.38;;;8.50;;
34982;SDS011;21187;50.976;13.720;2023-06-26T22:25:58;14.23;;;9.05;;
34982;SDS011;21187;50.976;13.720;2023-06-26T22:31:00;14.88;;;9.10;;
34982;SDS011;21187;50.976;13.720;2023-06-26T22:36:02;14.65;;;8.73;;
34982;SDS011;21187;50.976;13.720;2023-06-26T22:41:04;17.55;;;8.70;;
34982;SDS011;21187;50.976;13.720;2023-06-26T22:46:06;14.07;;;8.82;;
34982;SDS011;21187;50.976;13.720;2023-06-26T22:51:08;19.88;;;9.73;;
34982;SDS011;21187;50.976;13.720;2023-06-26T22:56:10;20.42;;;11.35;;
34982;SDS011;21187;50.976;13.720;2023-06-26T23:01:12;18.67;;;10.68;;
34982;SDS011;21187;50.976;13.720;2023-06-26T23:06:15;20.67;;;10.05;;
34982;SDS011;21187;50.976;13.720;2023-06-26T23:11:23;28.67;;;10.10;;
34982;SDS011;21187;50.976;13.720;2023-06-26T23:16:25;20.00;;;10.13;;
34982;SDS011;21187;50.976;13.720;2023-06-26T23:21:27;15.27;;;7.13;;
34982;SDS011;21187;50.976;13.720;2023-06-26T23:26:29;15.88;;;8.02;;
34982;SDS011;21187;50.976;13.720;2023-06-26T23:31:32;15.82;;;7.60;;
34982;SDS011;21187;50.976;13.720;2023-06-26T23:36:34;15.25;;;7.45;;
34982;SDS011;21187;50.976;13.720;2023-06-26T23:41:39;9.65;;;5.05;;
34982;SDS011;21187;50.976;13.720;2023-06-26T23:46:41;18.70;;;4.85;;
34982;SDS011;21187;50.976;13.720;2023-06-26T23:51:43;8.45;;;4.25;;
34982;SDS011;21187;50.976;13.720;2023-06-26T23:56:45;8.45;;;3.75;;
